Time;durP1;ratioP1;P1;durP2;ratioP2;P2;SDS_P1;SDS_P2;PMS_P1;PMS_P2;Temp;Humidity;BMP_temperature;BMP_pressure;BME280_temperature;BME280_humidity;BME280_pressure;Samples;Min_cycle;Max_cycle;Signal;HPM_P1;HPM_P2
2022/09/09 07:48:46;;;;;;;;;;;;;;;9.73;100.00;99192.19;6118142;22;19975;-89
2022/09/09 07:51:16;;;;;;;;;;;;;;;9.73;100.00;99194.84;6275772;22;19964;-92
2022/09/09 07:53:42;;;;;;;;;;;;;;;9.75;100.00;99185.91;6275900;22;19984;-92
2022/09/09 07:56:09;;;;;;;;;;;;;;;9.80;100.00;99188.34;6275611;22;19911;-91
2022/09/09 07:58:34;;;;;;;;;;;;;;;9.78;100.00;99187.53;6275119;22;19911;-89
2022/09/09 08:00:59;;;;;;;;;;;;;;;9.79;100.00;99194.53;6274593;22;20317;-90
2022/09/09 08:03:25;;;;;;;;;;;;;;;9.77;100.00;99191.13;6275707;22;19922;-90
2022/09/09 08:05:51;;;;;;;;;;;;;;;9.79;100.00;99190.09;6274084;22;20342;-89
2022/09/09 08:08:16;;;;;;;;;;;;;;;9.77;100.00;99191.97;6275648;22;19944;-92
2022/09/09 08:10:42;;;;;;;;;;;;;;;9.77;100.00;99196.41;6275561;22;19911;-92
2022/09/09 08:13:08;;;;;;;;;;;;;;;9.85;100.00;99204.84;6274086;22;19946;-90
2022/09/09 08:15:34;;;;;;;;;;;;;;;9.79;100.00;99191.91;6246294;22;20323;-91
2022/09/09 08:17:59;;;;;;;;;;;;;;;9.78;100.00;99195.47;6274590;22;19911;-90
2022/09/09 08:20:25;;;;;;;;;;;;;;;10.06;100.00;99191.47;6275720;22;19911;-88
2022/09/09 08:22:50;;;;;;;;;;;;;;;10.27;100.00;99186.88;6275185;22;19998;-91
2022/09/09 08:25:15;;;;;;;;;;;;;;;11.36;100.00;99182.88;6274556;22;20297;-89
2022/09/09 08:27:40;;;;;;;;;;;;;;;10.86;100.00;99187.34;6275731;22;20015;-88
2022/09/09 08:30:06;;;;;;;;;;;;;;;10.11;100.00;99186.78;6274211;22;20303;-89
2022/09/09 08:32:31;;;;;;;;;;;;;;;9.76;100.00;99197.34;6275458;22;19915;-90
2022/09/09 08:34:58;;;;;;;;;;;;;;;9.55;100.00;99189.50;6275283;22;19911;-91
2022/09/09 08:37:24;;;;;;;;;;;;;;;9.49;100.00;99205.66;6275794;22;19915;-86
2022/09/09 08:39:50;;;;;;;;;;;;;;;9.48;100.00;99198.69;6275403;22;19922;-88
2022/09/09 08:42:26;;;;;;;;;;;;;;;9.44;100.00;99186.53;6275342;22;19912;-90
2022/09/09 08:44:52;;;;;;;;;;;;;;;9.41;100.00;99189.31;6273779;22;20315;-89
2022/09/09 08:47:36;;;;;;;;;;;;;;;9.46;100.00;99189.94;6275096;22;19918;-92
2022/09/09 08:50:16;;;;;;;;;;;;;;;9.42;100.00;99183.09;6275184;22;20387;-89
2022/09/09 08:52:49;;;;;;;;;;;;;;;9.36;100.00;99189.53;6276037;22;19982;-91
2022/09/09 08:55:33;;;;;;;;;;;;;;;9.34;100.00;99193.19;6276661;22;19934;-90
2022/09/09 08:58:01;;;;;;;;;;;;;;;9.34;100.00;99201.97;6275735;22;19911;-88
2022/09/09 09:00:37;;;;;;;;;;;;;;;9.31;100.00;99190.69;6275623;22;19922;-88
2022/09/09 09:03:05;;;;;;;;;;;;;;;9.30;100.00;99194.25;6277589;22;19918;-85
2022/09/09 09:05:57;;;;;;;;;;;;;;;9.32;100.00;99195.03;6275853;22;19918;-93
2022/09/09 09:08:41;;;;;;;;;;;;;;;9.22;100.00;99190.19;6253036;22;20315;-85
2022/09/09 09:11:07;;;;;;;;;;;;;;;9.21;100.00;99201.69;6276913;22;19912;-92
2022/09/09 09:13:43;;;;;;;;;;;;;;;9.29;100.00;99197.84;6275289;22;19914;-87
2022/09/09 09:16:35;;;;;;;;;;;;;;;9.19;100.00;99182.41;6276434;22;20353;-89
2022/09/09 09:19:00;;;;;;;;;;;;;;;9.15;100.00;99180.81;6273829;22;19911;-89
2022/09/09 09:21:26;;;;;;;;;;;;;;;9.16;100.00;99171.97;6277504;22;19935;-91
2022/09/09 09:23:56;;;;;;;;;;;;;;;9.27;100.00;99180.25;6276960;22;20010;-90
2022/09/09 09:26:23;;;;;;;;;;;;;;;9.22;100.00;99181.38;6277124;22;19918;-88
2022/09/09 09:28:50;;;;;;;;;;;;;;;9.22;100.00;99173.47;6275424;22;20386;-89
2022/09/09 09:31:15;;;;;;;;;;;;;;;9.21;100.00;99179.69;6277196;22;19911;-85
2022/09/09 09:33:40;;;;;;;;;;;;;;;9.27;100.00;99172.34;6277202;22;19911;-90
2022/09/09 09:36:07;;;;;;;;;;;;;;;9.16;100.00;99165.81;6276933;22;20238;-89
2022/09/09 09:38:33;;;;;;;;;;;;;;;9.16;100.00;99163.16;6249717;22;19938;-89
2022/09/09 09:40:59;;;;;;;;;;;;;;;9.21;100.00;99148.81;6249856;22;19919;-90
2022/09/09 09:43:26;;;;;;;;;;;;;;;9.27;100.00;99147.69;6276756;22;19911;-89
2022/09/09 09:45:51;;;;;;;;;;;;;;;9.21;100.00;99150.63;6273918;22;19908;-88
2022/09/09 09:48:17;;;;;;;;;;;;;;;9.24;100.00;99148.69;6276630;22;19922;-87
2022/09/09 09:50:50;;;;;;;;;;;;;;;9.23;100.00;99159.31;6276432;22;19923;-86
2022/09/09 09:53:19;;;;;;;;;;;;;;;9.21;100.00;99174.41;6276598;22;19915;-84
2022/09/09 09:55:50;;;;;;;;;;;;;;;9.11;100.00;99189.84;6276292;22;20268;-87
2022/09/09 09:58:15;;;;;;;;;;;;;;;9.17;100.00;99199.25;6275656;22;20323;-92
2022/09/09 10:00:48;;;;;;;;;;;;;;;9.10;100.00;99209.25;6274211;22;19922;-91
2022/09/09 10:03:28;;;;;;;;;;;;;;;9.02;100.00;99217.53;6275791;22;19919;-91
2022/09/09 10:05:56;;;;;;;;;;;;;;;9.17;100.00;99207.19;6249555;22;20195;-86
2022/09/09 10:08:30;;;;;;;;;;;;;;;8.99;100.00;99195.69;6276226;22;20346;-86
2022/09/09 10:11:03;;;;;;;;;;;;;;;9.15;100.00;99204.63;6242284;23;19911;-86
2022/09/09 10:13:32;;;;;;;;;;;;;;;9.11;100.00;99183.69;6242809;23;19916;-87
2022/09/09 10:15:57;;;;;;;;;;;;;;;9.08;100.00;99184.69;6241704;23;19922;-87
2022/09/09 10:18:39;;;;;;;;;;;;;;;9.04;100.00;99176.03;6241930;23;20243;-92
2022/09/09 10:21:23;;;;;;;;;;;;;;;9.17;100.00;99186.03;6239850;23;19911;-87
2022/09/09 10:23:51;;;;;;;;;;;;;;;9.01;100.00;99188.53;6240204;23;19916;-89
2022/09/09 10:26:20;;;;;;;;;;;;;;;8.96;100.00;99175.53;6242254;23;19912;-89
2022/09/09 10:28:47;;;;;;;;;;;;;;;8.98;100.00;99175.47;6239019;23;19912;-88
2022/09/09 10:31:23;;;;;;;;;;;;;;;9.06;100.00;99184.78;6239848;23;20304;-89
2022/09/09 10:33:51;;;;;;;;;;;;;;;9.01;100.00;99180.59;6217070;23;19990;-89
2022/09/09 10:36:22;;;;;;;;;;;;;;;9.00;100.00;99173.59;6243563;22;20250;-91
2022/09/09 10:39:10;;;;;;;;;;;;;;;9.03;100.00;99168.19;6276359;22;19911;-91
2022/09/09 10:41:51;;;;;;;;;;;;;;;9.01;100.00;99164.75;6218541;22;20277;-89
2022/09/09 10:44:35;;;;;;;;;;;;;;;9.12;100.00;99173.03;6274072;22;19994;-86
2022/09/09 10:47:19;;;;;;;;;;;;;;;9.07;100.00;99167.13;6272965;22;19918;-85
2022/09/09 10:50:08;;;;;;;;;;;;;;;9.07;100.00;99160.03;6274841;22;19922;-89
2022/09/09 10:52:52;;;;;;;;;;;;;;;9.07;100.00;99160.03;6275362;22;20339;-91
2022/09/09 10:55:19;;;;;;;;;;;;;;;9.04;100.00;99154.88;6273395;22;19981;-89
2022/09/09 10:57:47;;;;;;;;;;;;;;;9.11;100.00;99158.13;6274109;22;19943;-88
2022/09/09 11:00:33;;;;;;;;;;;;;;;9.04;100.00;99152.25;6273750;22;20331;-89
2022/09/09 11:03:00;;;;;;;;;;;;;;;9.12;100.00;99164.25;6261161;22;19992;-89
2022/09/09 11:05:28;;;;;;;;;;;;;;;9.11;100.00;99162.53;6274629;22;19954;-90
2022/09/09 11:07:59;;;;;;;;;;;;;;;9.07;100.00;99167.97;6275644;22;19915;-90
2022/09/09 11:11:13;;;;;;;;;;;;;;;;;;;;;
2022/09/09 11:14:02;;;;;;;;;;;;;;;9.05;100.00;99153.13;6211393;23;20479;-90
2022/09/09 11:16:34;;;;;;;;;;;;;;;9.08;100.00;99142.41;6276034;22;19991;-89
2022/09/09 11:19:23;;;;;;;;;;;;;;;9.04;100.00;99143.47;6275844;22;19918;-89
2022/09/09 11:21:49;;;;;;;;;;;;;;;9.06;100.00;99138.97;6275580;22;19994;-85
2022/09/09 11:24:25;;;;;;;;;;;;;;;8.99;100.00;99140.19;6274202;22;19915;-89
2022/09/09 11:27:06;;;;;;;;;;;;;;;9.02;100.00;99132.13;6276032;22;19915;-88
2022/09/09 11:29:50;;;;;;;;;;;;;;;9.07;100.00;99125.69;6274344;22;20219;-89
2022/09/09 11:32:33;;;;;;;;;;;;;;;9.13;100.00;99118.41;6274480;22;20263;-88
2022/09/09 11:35:11;;;;;;;;;;;;;;;9.07;100.00;99108.97;6275921;22;19922;-89
2022/09/09 11:37:48;;;;;;;;;;;;;;;9.10;100.00;99124.69;6275805;22;19911;-89
2022/09/09 11:40:17;;;;;;;;;;;;;;;9.10;100.00;99122.03;6275954;22;19965;-89
2022/09/09 11:42:42;;;;;;;;;;;;;;;9.01;100.00;99119.84;6248729;22;19915;-89
2022/09/09 11:45:28;;;;;;;;;;;;;;;9.04;100.00;99117.91;6247287;22;19953;-88
2022/09/09 11:47:58;;;;;;;;;;;;;;;9.06;100.00;99116.06;6248464;22;19990;-88
2022/09/09 11:50:26;;;;;;;;;;;;;;;9.08;100.00;99108.91;6245196;22;19938;-88
2022/09/09 11:53:03;;;;;;;;;;;;;;;8.98;100.00;99117.34;6273701;22;19922;-90
2022/09/09 11:55:30;;;;;;;;;;;;;;;9.20;100.00;99115.38;6248638;22;19907;-89
2022/09/09 11:58:01;;;;;;;;;;;;;;;9.13;100.00;99118.41;6275623;22;19915;-89
2022/09/09 12:00:32;;;;;;;;;;;;;;;9.13;100.00;99121.91;6273941;22;19915;-91
2022/09/09 12:02:58;;;;;;;;;;;;;;;9.10;100.00;99127.34;6275561;22;19915;-88
2022/09/09 12:05:35;;;;;;;;;;;;;;;9.08;100.00;99126.56;6275635;22;19994;-91
2022/09/09 12:08:03;;;;;;;;;;;;;;;9.06;100.00;99126.63;6275898;22;19915;-91
2022/09/09 12:10:33;;;;;;;;;;;;;;;9.05;100.00;99124.91;6276325;22;20331;-92
2022/09/09 12:13:19;;;;;;;;;;;;;;;9.07;100.00;99145.97;6275847;22;19915;-92
2022/09/09 12:15:52;;;;;;;;;;;;;;;9.00;100.00;99158.63;6274187;22;19918;-90
2022/09/09 12:18:32;;;;;;;;;;;;;;;8.97;100.00;99160.56;6274786;22;19911;-93
2022/09/09 12:21:03;;;;;;;;;;;;;;;8.99;100.00;99161.34;6275999;22;19911;-92
2022/09/09 12:23:35;;;;;;;;;;;;;;;8.92;100.00;99163.41;6249092;22;19922;-93
2022/09/09 12:26:21;;;;;;;;;;;;;;;8.89;100.00;99161.75;6274552;22;19916;-91
2022/09/09 12:28:50;;;;;;;;;;;;;;;8.88;100.00;99157.38;6275955;22;19915;-91
2022/09/09 12:31:19;;;;;;;;;;;;;;;8.96;100.00;99164.13;6277024;22;19907;-91
2022/09/09 12:33:47;;;;;;;;;;;;;;;8.95;100.00;99162.38;6278251;22;19911;-92
2022/09/09 12:36:32;;;;;;;;;;;;;;;8.91;100.00;99161.69;6278207;22;19907;-91
2022/09/09 12:39:10;;;;;;;;;;;;;;;8.94;100.00;99160.69;6276814;22;19911;-92
2022/09/09 12:41:35;;;;;;;;;;;;;;;9.01;100.00;99156.81;6249958;22;19918;-91
2022/09/09 12:44:08;;;;;;;;;;;;;;;8.99;100.00;99153.41;6248572;22;20243;-92
2022/09/09 12:46:36;;;;;;;;;;;;;;;8.91;100.00;99151.97;6277771;22;20239;-92
2022/09/09 12:49:02;;;;;;;;;;;;;;;8.93;100.00;99148.41;6277517;22;19962;-91
2022/09/09 12:51:28;;;;;;;;;;;;;;;8.95;100.00;99144.78;6277311;22;19950;-92
2022/09/09 12:53:54;;;;;;;;;;;;;;;8.95;100.00;99130.69;6250392;22;19915;-91
2022/09/09 12:56:26;;;;;;;;;;;;;;;8.98;100.00;99130.53;6277083;22;19958;-92
2022/09/09 12:58:51;;;;;;;;;;;;;;;9.01;100.00;99125.13;6248721;22;20235;-92
2022/09/09 13:01:22;;;;;;;;;;;;;;;8.90;100.00;99123.84;6250198;22;19954;-91
2022/09/09 13:03:48;;;;;;;;;;;;;;;9.00;100.00;99121.63;6249893;22;19915;-90
2022/09/09 13:06:17;;;;;;;;;;;;;;;8.99;100.00;99111.97;6277198;22;20289;-90
2022/09/09 13:08:43;;;;;;;;;;;;;;;9.08;100.00;99115.97;6276970;22;20347;-90
2022/09/09 13:11:22;;;;;;;;;;;;;;;9.02;100.00;99122.41;6275785;22;19942;-88
2022/09/09 13:13:51;;;;;;;;;;;;;;;9.00;100.00;99118.97;6276546;22;19942;-91
2022/09/09 13:16:31;;;;;;;;;;;;;;;9.04;100.00;99117.03;6277541;22;19937;-91
2022/09/09 13:18:57;;;;;;;;;;;;;;;9.01;100.00;99107.47;6277345;22;19955;-92
2022/09/09 13:21:35;;;;;;;;;;;;;;;9.04;100.00;99114.41;6276989;22;19998;-88
2022/09/09 13:24:03;;;;;;;;;;;;;;;8.95;100.00;99113.06;6276889;22;19915;-90
2022/09/09 13:26:29;;;;;;;;;;;;;;;9.06;100.00;99100.19;6276874;22;19982;-90
2022/09/09 13:28:55;;;;;;;;;;;;;;;9.08;100.00;99092.19;6275072;22;20001;-88
2022/09/09 13:31:23;;;;;;;;;;;;;;;8.96;100.00;99100.69;6277187;22;20349;-88
2022/09/09 13:33:48;;;;;;;;;;;;;;;9.00;100.00;99091.69;6249577;22;19911;-90
2022/09/09 13:36:17;;;;;;;;;;;;;;;9.06;100.00;99097.56;6277257;22;19922;-90
2022/09/09 13:38:51;;;;;;;;;;;;;;;9.00;100.00;99102.25;6275167;22;20399;-89
2022/09/09 13:41:21;;;;;;;;;;;;;;;9.03;100.00;99095.06;6275081;22;19919;-88
2022/09/09 13:43:47;;;;;;;;;;;;;;;8.95;100.00;99098.97;6276487;22;19934;-90
2022/09/09 13:46:28;;;;;;;;;;;;;;;8.91;100.00;99106.19;6273967;22;19969;-87
2022/09/09 13:48:54;;;;;;;;;;;;;;;8.91;100.00;99099.13;6249620;22;19916;-89
2022/09/09 13:51:42;;;;;;;;;;;;;;;8.83;100.00;99106.56;6276668;22;20291;-93
2022/09/09 13:54:11;;;;;;;;;;;;;;;8.95;100.00;99094.56;6267856;22;19911;-89
2022/09/09 13:56:38;;;;;;;;;;;;;;;8.95;100.00;99088.41;6276586;22;19994;-89
2022/09/09 13:59:04;;;;;;;;;;;;;;;8.84;100.00;99097.72;6247784;22;19918;-88
2022/09/09 14:01:31;;;;;;;;;;;;;;;8.96;100.00;99075.13;6276369;22;19911;-89
2022/09/09 14:03:56;;;;;;;;;;;;;;;8.87;100.00;99080.84;6276539;22;19915;-90
2022/09/09 14:06:21;;;;;;;;;;;;;;;8.83;100.00;99074.84;6249374;22;19911;-90
2022/09/09 14:08:47;;;;;;;;;;;;;;;8.78;100.00;99070.72;6276276;22;20220;-90
2022/09/09 14:11:13;;;;;;;;;;;;;;;8.81;100.00;99076.72;6276375;22;19946;-90
2022/09/09 14:13:38;;;;;;;;;;;;;;;8.79;100.00;99070.66;6276458;22;19950;-91
2022/09/09 14:16:03;;;;;;;;;;;;;;;8.89;100.00;99071.94;6275144;22;19918;-90
2022/09/09 14:18:29;;;;;;;;;;;;;;;8.79;100.00;99075.94;6276656;22;19912;-89
2022/09/09 14:20:54;;;;;;;;;;;;;;;8.80;100.00;99082.91;6276058;22;20209;-90
2022/09/09 14:23:21;;;;;;;;;;;;;;;8.88;100.00;99083.41;6274555;22;19915;-90
2022/09/09 14:25:46;;;;;;;;;;;;;;;8.84;100.00;99092.44;6276287;22;20379;-90
2022/09/09 14:28:12;;;;;;;;;;;;;;;8.91;100.00;99104.41;6276574;22;19912;-90
2022/09/09 14:30:39;;;;;;;;;;;;;;;8.80;100.00;99088.19;6273251;22;19998;-90
2022/09/09 14:33:04;;;;;;;;;;;;;;;8.80;100.00;99096.13;6276220;22;19946;-89
2022/09/09 14:35:30;;;;;;;;;;;;;;;8.78;100.00;99082.13;6276044;22;19916;-89
2022/09/09 14:37:56;;;;;;;;;;;;;;;8.77;100.00;99087.50;6275965;22;19994;-90
2022/09/09 14:40:21;;;;;;;;;;;;;;;8.68;100.00;99080.84;6276057;22;19918;-91
2022/09/09 14:42:47;;;;;;;;;;;;;;;8.68;100.00;99089.63;6248875;22;19911;-89
2022/09/09 14:45:12;;;;;;;;;;;;;;;8.66;100.00;99087.97;6275146;22;20201;-89
2022/09/09 14:47:37;;;;;;;;;;;;;;;8.60;100.00;99093.53;6276102;22;19957;-91
2022/09/09 14:50:04;;;;;;;;;;;;;;;8.65;100.00;99102.97;6275641;22;19916;-90
2022/09/09 14:52:30;;;;;;;;;;;;;;;8.58;100.00;99111.25;6275853;22;19915;-89
2022/09/09 14:54:55;;;;;;;;;;;;;;;8.63;100.00;99123.34;6248727;22;19918;-90
2022/09/09 14:57:21;;;;;;;;;;;;;;;8.59;100.00;99136.75;6275960;22;19998;-90
2022/09/09 14:59:46;;;;;;;;;;;;;;;8.61;100.00;99137.53;6274510;22;19918;-89
2022/09/09 15:02:13;;;;;;;;;;;;;;;8.70;100.00;99152.97;6248947;22;19912;-90
2022/09/09 15:04:39;;;;;;;;;;;;;;;8.59;100.00;99156.06;6248719;22;19912;-90
2022/09/09 15:07:04;;;;;;;;;;;;;;;8.48;100.00;99145.97;6274014;22;19990;-88
2022/09/09 15:09:29;;;;;;;;;;;;;;;8.51;100.00;99148.50;6275941;22;20002;-90
2022/09/09 15:11:55;;;;;;;;;;;;;;;8.55;100.00;99146.56;6275589;22;20298;-91
2022/09/09 15:14:23;;;;;;;;;;;;;;;8.43;100.00;99129.50;6274220;22;19922;-89
2022/09/09 15:16:48;;;;;;;;;;;;;;;8.42;100.00;99133.03;6275997;22;19911;-91
2022/09/09 15:19:13;;;;;;;;;;;;;;;8.40;100.00;99134.88;6275910;22;19926;-87
2022/09/09 15:21:39;;;;;;;;;;;;;;;8.38;100.00;99139.38;6275998;22;19949;-89
2022/09/09 15:24:07;;;;;;;;;;;;;;;8.40;100.00;99139.31;6274068;22;20389;-89
2022/09/09 15:26:32;;;;;;;;;;;;;;;8.44;100.00;99135.63;6276049;22;19915;-89
2022/09/09 15:28:59;;;;;;;;;;;;;;;8.44;100.00;99139.16;6274093;22;20231;-87
2022/09/09 15:31:25;;;;;;;;;;;;;;;8.36;100.00;99133.31;6275625;22;19918;-91
2022/09/09 15:33:50;;;;;;;;;;;;;;;8.37;100.00;99135.84;6275749;22;19915;-89
2022/09/09 15:36:17;;;;;;;;;;;;;;;8.33;100.00;99136.94;6275793;22;20307;-86
2022/09/09 15:38:43;;;;;;;;;;;;;;;8.41;100.00;99141.00;6248823;22;19919;-87
2022/09/09 15:41:09;;;;;;;;;;;;;;;8.38;100.00;99136.75;6275548;22;19915;-86
2022/09/09 15:43:34;;;;;;;;;;;;;;;8.36;100.00;99138.59;6275644;22;19922;-88
2022/09/09 15:46:05;;;;;;;;;;;;;;;8.34;100.00;99129.88;6273918;22;19922;-84
2022/09/09 15:48:46;;;;;;;;;;;;;;;8.30;100.00;99142.34;6275822;22;19923;-94
2022/09/09 15:51:12;;;;;;;;;;;;;;;8.37;100.00;99135.84;6274912;22;19916;-86
2022/09/09 15:53:38;;;;;;;;;;;;;;;8.32;100.00;99143.13;6247469;22;19981;-83
2022/09/09 15:56:06;;;;;;;;;;;;;;;8.37;100.00;99146.41;6274171;22;20335;-90
2022/09/09 15:58:36;;;;;;;;;;;;;;;8.35;100.00;99144.78;6274521;22;19990;-89
2022/09/09 16:01:12;;;;;;;;;;;;;;;8.29;100.00;99147.69;6245658;22;19911;-88
2022/09/09 16:03:38;;;;;;;;;;;;;;;8.28;100.00;99152.13;6248680;22;19922;-89
2022/09/09 16:06:11;;;;;;;;;;;;;;;8.31;100.00;99145.84;6276758;22;19907;-89
2022/09/09 16:08:41;;;;;;;;;;;;;;;8.22;100.00;99146.22;6277046;22;19911;-89
2022/09/09 16:11:17;;;;;;;;;;;;;;;8.31;100.00;99151.13;6276613;22;20327;-88
2022/09/09 16:13:44;;;;;;;;;;;;;;;8.29;100.00;99147.69;6276855;22;19911;-88
2022/09/09 16:16:12;;;;;;;;;;;;;;;8.25;100.00;99149.63;6276334;22;20235;-89
2022/09/09 16:18:45;;;;;;;;;;;;;;;8.24;100.00;99157.59;6277367;22;19926;-89
2022/09/09 16:21:17;;;;;;;;;;;;;;;8.17;100.00;99144.66;6276377;22;19915;-87
2022/09/09 16:23:43;;;;;;;;;;;;;;;8.18;100.00;99154.31;6276064;22;19911;-87
2022/09/09 16:26:13;;;;;;;;;;;;;;;8.16;100.00;99157.94;6275176;22;19925;-88
2022/09/09 16:28:47;;;;;;;;;;;;;;;8.21;100.00;99170.94;6248927;22;20464;-90
2022/09/09 16:31:17;;;;;;;;;;;;;;;8.22;100.00;99168.22;6250562;22;19923;-90
2022/09/09 16:33:42;;;;;;;;;;;;;;;8.26;100.00;99167.16;6277521;22;19915;-89
2022/09/09 16:36:15;;;;;;;;;;;;;;;8.17;100.00;99165.78;6277430;22;20350;-87
2022/09/09 16:38:44;;;;;;;;;;;;;;;8.21;100.00;99163.84;6277016;22;19925;-88
2022/09/09 16:41:11;;;;;;;;;;;;;;;8.23;100.00;99158.50;6275073;22;19918;-89
2022/09/09 16:43:36;;;;;;;;;;;;;;;8.21;100.00;99157.72;6250177;22;19938;-88
2022/09/09 16:46:04;;;;;;;;;;;;;;;8.24;100.00;99154.97;6248729;22;19923;-89
2022/09/09 16:48:33;;;;;;;;;;;;;;;8.21;100.00;99155.09;6277514;22;20320;-89
2022/09/09 16:51:14;;;;;;;;;;;;;;;8.28;100.00;99153.88;6250923;22;19923;-90
2022/09/09 16:53:39;;;;;;;;;;;;;;;8.27;100.00;99160.09;6250481;22;20002;-89
2022/09/09 16:56:09;;;;;;;;;;;;;;;8.31;100.00;99165.19;6250310;22;20294;-88
2022/09/09 16:58:34;;;;;;;;;;;;;;;8.30;100.00;99170.53;6276979;22;20331;-87
2022/09/09 17:01:02;;;;;;;;;;;;;;;8.29;100.00;99174.09;6275550;22;20009;-89
2022/09/09 17:03:27;;;;;;;;;;;;;;;8.26;100.00;99168.94;6275569;22;19923;-86
2022/09/09 17:05:53;;;;;;;;;;;;;;;8.20;100.00;99180.63;6249723;22;19915;-85
2022/09/09 17:08:18;;;;;;;;;;;;;;;8.21;100.00;99173.56;6249687;22;19947;-88
2022/09/09 17:10:43;;;;;;;;;;;;;;;8.26;100.00;99184.78;6277075;22;19911;-86
2022/09/09 17:13:09;;;;;;;;;;;;;;;8.25;100.00;99183.06;6276993;22;19918;-87
2022/09/09 17:15:39;;;;;;;;;;;;;;;8.33;100.00;99188.88;6274477;22;20323;-87
2022/09/09 17:18:05;;;;;;;;;;;;;;;8.30;100.00;99186.38;6275032;22;19911;-89
2022/09/09 17:20:30;;;;;;;;;;;;;;;8.32;100.00;99195.06;6276263;22;20339;-87
2022/09/09 17:22:56;;;;;;;;;;;;;;;8.26;100.00;99201.47;6276393;22;19911;-91
2022/09/09 17:25:22;;;;;;;;;;;;;;;8.28;100.00;99215.47;6276781;22;19947;-89
2022/09/09 17:27:47;;;;;;;;;;;;;;;8.28;100.00;99211.94;6275491;22;19986;-90
2022/09/09 17:30:13;;;;;;;;;;;;;;;8.30;100.00;99213.63;6273961;22;19950;-90
2022/09/09 17:32:38;;;;;;;;;;;;;;;8.23;100.00;99224.50;6249639;22;19918;-86
2022/09/09 17:35:05;;;;;;;;;;;;;;;8.31;100.00;99225.03;6274866;22;19915;-89
2022/09/09 17:37:31;;;;;;;;;;;;;;;8.31;100.00;99231.19;6276270;22;19922;-88
2022/09/09 17:39:57;;;;;;;;;;;;;;;8.25;100.00;99230.56;6249883;22;19931;-90
2022/09/09 17:42:22;;;;;;;;;;;;;;;8.25;100.00;99235.84;6249525;22;19917;-89
2022/09/09 17:44:48;;;;;;;;;;;;;;;8.24;100.00;99239.41;6274120;22;19994;-87
2022/09/09 17:47:13;;;;;;;;;;;;;;;8.28;100.00;99241.88;6248822;22;19942;-87
2022/09/09 17:49:39;;;;;;;;;;;;;;;8.25;100.00;99247.28;6275921;22;19915;-88
2022/09/09 17:52:04;;;;;;;;;;;;;;;8.30;100.00;99255.00;6249649;22;20239;-86
2022/09/09 17:54:29;;;;;;;;;;;;;;;8.35;100.00;99264.44;6276609;22;20247;-89
2022/09/09 17:56:57;;;;;;;;;;;;;;;8.29;100.00;99253.28;6275155;22;19911;-88
2022/09/09 17:59:24;;;;;;;;;;;;;;;8.21;100.00;99252.75;6274809;22;20311;-91
2022/09/09 18:01:50;;;;;;;;;;;;;;;8.16;100.00;99260.84;6248984;22;19911;-88
2022/09/09 18:04:16;;;;;;;;;;;;;;;8.17;100.00;99258.16;6247843;22;19930;-87
2022/09/09 18:06:43;;;;;;;;;;;;;;;8.18;100.00;99264.28;6275994;22;19942;-85
2022/09/09 18:09:10;;;;;;;;;;;;;;;8.17;100.00;99260.78;6276208;22;19994;-89
2022/09/09 18:11:41;;;;;;;;;;;;;;;8.22;100.00;99257.06;6276156;22;19915;-88
2022/09/09 18:14:09;;;;;;;;;;;;;;;8.18;100.00;99262.50;6274531;22;19911;-89
2022/09/09 18:16:35;;;;;;;;;;;;;;;8.22;100.00;99263.22;6273573;22;19973;-84
2022/09/09 18:19:02;;;;;;;;;;;;;;;8.30;100.00;99255.84;6248958;22;20335;-88
2022/09/09 18:21:31;;;;;;;;;;;;;;;8.26;100.00;99263.97;6275988;22;19973;-86
2022/09/09 18:23:56;;;;;;;;;;;;;;;8.26;100.00;99264.81;6248799;22;20363;-87
2022/09/09 18:26:26;;;;;;;;;;;;;;;8.22;100.00;99263.22;6276446;22;19946;-88
2022/09/09 18:28:56;;;;;;;;;;;;;;;8.18;100.00;99267.78;6276307;22;19959;-86
2022/09/09 18:31:22;;;;;;;;;;;;;;;8.23;100.00;99270.22;6274291;22;19923;-88
2022/09/09 18:33:49;;;;;;;;;;;;;;;8.22;100.00;99271.16;6249382;22;20319;-91
2022/09/09 18:36:33;;;;;;;;;;;;;;;8.21;100.00;99279.97;6275016;22;19915;-89
2022/09/09 18:39:07;;;;;;;;;;;;;;;8.09;100.00;99277.84;6276071;22;19911;-89
2022/09/09 18:41:39;;;;;;;;;;;;;;;8.19;100.00;99281.84;6275923;22;19922;-88
2022/09/09 18:44:08;;;;;;;;;;;;;;;8.12;100.00;99286.50;6275637;22;19987;-89
2022/09/09 18:46:34;;;;;;;;;;;;;;;8.13;100.00;99285.56;6248381;22;19918;-86
2022/09/09 18:49:00;;;;;;;;;;;;;;;8.19;100.00;99287.97;6275856;22;20389;-92
2022/09/09 18:51:26;;;;;;;;;;;;;;;8.17;100.00;99288.97;6277303;22;19911;-91
2022/09/09 18:53:53;;;;;;;;;;;;;;;8.09;100.00;99291.03;6276629;22;20006;-89
2022/09/09 18:56:19;;;;;;;;;;;;;;;8.09;100.00;99286.63;6275991;22;19922;-89
2022/09/09 18:58:44;;;;;;;;;;;;;;;8.06;100.00;99288.50;6274147;22;19911;-90
2022/09/09 19:01:12;;;;;;;;;;;;;;;8.11;100.00;99291.84;6247571;22;20279;-88
2022/09/09 19:03:38;;;;;;;;;;;;;;;8.11;100.00;99297.97;6248583;22;19921;-87
2022/09/09 19:06:06;;;;;;;;;;;;;;;8.05;100.00;99294.72;6276011;22;19911;-86
2022/09/09 19:08:39;;;;;;;;;;;;;;;8.09;100.00;99289.28;6248989;22;19954;-86
2022/09/09 19:11:07;;;;;;;;;;;;;;;8.14;100.00;99300.50;6248927;22;19990;-88
2022/09/09 19:13:33;;;;;;;;;;;;;;;8.13;100.00;99301.41;6275763;22;20346;-94
2022/09/09 19:16:05;;;;;;;;;;;;;;;8.14;100.00;99305.78;6274146;22;19911;-90
2022/09/09 19:18:31;;;;;;;;;;;;;;;8.11;100.00;99303.25;6249072;22;19941;-88
2022/09/09 19:20:56;;;;;;;;;;;;;;;8.09;100.00;99298.94;6249656;22;20312;-95
2022/09/09 19:23:22;;;;;;;;;;;;;;;8.08;100.00;99308.66;6276014;22;19917;-93
2022/09/09 19:25:47;;;;;;;;;;;;;;;10.96;100.00;99297.28;6275791;22;19907;-94
2022/09/09 19:28:13;;;;;;;;;;;;;;;8.97;100.00;99298.81;6254227;22;19915;-96
2022/09/09 19:30:38;;;;;;;;;;;;;;;8.61;100.00;99311.81;6257466;22;19911;-91
2022/09/09 19:33:07;;;;;;;;;;;;;;;8.44;100.00;99305.47;6280044;22;19912;-90
2022/09/09 19:35:32;;;;;;;;;;;;;;;8.28;100.00;99305.22;6276866;22;19911;-89
2022/09/09 19:37:58;;;;;;;;;;;;;;;8.28;100.00;99307.84;6282247;22;20270;-96
2022/09/09 19:40:23;;;;;;;;;;;;;;;8.26;100.00;99307.03;6280709;22;19915;-94
2022/09/09 19:42:52;;;;;;;;;;;;;;;8.17;100.00;99297.72;6280526;22;19911;-93
2022/09/09 19:45:18;;;;;;;;;;;;;;;8.07;100.00;99306.06;6284487;22;19911;-92
2022/09/09 19:47:44;;;;;;;;;;;;;;;8.09;100.00;99309.50;6284344;22;19911;-90
2022/09/09 19:50:12;;;;;;;;;;;;;;;8.08;100.00;99308.66;6276989;22;19938;-94
2022/09/09 19:52:37;;;;;;;;;;;;;;;8.09;100.00;99310.38;6281980;22;19918;-88
2022/09/09 19:55:03;;;;;;;;;;;;;;;8.09;100.00;99312.13;6286841;22;19915;-91
2022/09/09 19:57:29;;;;;;;;;;;;;;;8.06;100.00;99307.88;6286462;22;19918;-90
2022/09/09 19:59:56;;;;;;;;;;;;;;;8.05;100.00;99314.06;6287333;22;19923;-90
2022/09/09 20:02:22;;;;;;;;;;;;;;;8.05;100.00;99314.06;6280432;22;19912;-90
2022/09/09 20:04:47;;;;;;;;;;;;;;;7.97;100.00;99316.13;6251489;22;19918;-94
2022/09/09 20:07:13;;;;;;;;;;;;;;;8.02;100.00;99310.69;6277982;22;20026;-95
2022/09/09 20:09:39;;;;;;;;;;;;;;;8.00;100.00;99311.59;6250727;22;20239;-87
2022/09/09 20:12:04;;;;;;;;;;;;;;;7.99;100.00;99312.53;6249999;22;19918;-88
2022/09/09 20:14:29;;;;;;;;;;;;;;;8.02;100.00;99310.69;6250711;22;19989;-95
2022/09/09 20:16:55;;;;;;;;;;;;;;;7.90;100.00;99315.53;6278378;22;19911;-93
2022/09/09 20:19:21;;;;;;;;;;;;;;;7.92;100.00;99318.09;6279244;22;20239;-87
2022/09/09 20:21:50;;;;;;;;;;;;;;;7.87;100.00;99312.16;6251503;22;19915;-89
2022/09/09 20:24:17;;;;;;;;;;;;;;;7.90;100.00;99314.69;6277625;22;19922;-88
2022/09/09 20:26:46;;;;;;;;;;;;;;;7.89;100.00;99312.94;6278446;22;19911;-92
2022/09/09 20:29:13;;;;;;;;;;;;;;;7.86;100.00;99318.34;6277142;22;19915;-92
2022/09/09 20:32:17;;;;;;;;;;;;;;;7.83;100.00;99311.41;6249897;22;19911;-90
2022/09/09 20:34:42;;;;;;;;;;;;;;;7.79;100.00;99310.66;6247467;22;19922;-90
2022/09/09 20:37:07;;;;;;;;;;;;;;;7.79;100.00;99313.31;6277026;22;19907;-90
2022/09/09 20:39:34;;;;;;;;;;;;;;;7.81;100.00;99314.09;6249551;22;19912;-91
2022/09/09 20:42:26;;;;;;;;;;;;;;;7.81;100.00;99311.47;6276491;22;20311;-92
2022/09/09 20:44:51;;;;;;;;;;;;;;;7.80;100.00;99299.22;6272893;22;20220;-94
2022/09/09 20:47:16;;;;;;;;;;;;;;;7.88;100.00;99301.56;6279555;22;19933;-93